Latest Coastal Weather Observations for Walpole North

IDW60701

Issued at 9:43 pm WST Monday 4 May 2026 (issued every 10 minutes, with the page automatically refreshed every 10 minutes)

About coastal observations | Map of coastal stations | Coastal observations for WA | Marine services | Other Formats
Station Details ID: 009998 Name: NORTH WALPOLE Lat: -34.95 Lon: 116.72 Height: 73.0 m
Data from the previous 72 hours. | See also: Recent months at Walpole North
Date/Time
WST
Wind Sea
Height
m
Swell Vis
km
Cloud Weather Temp
°C
Press
MSL
hPa
Rain since
9am
mm
Dir  Spd
kts
Gust
kts
Height
m
Period
s
Dir
04/09:30pm CALM 0 0 - - - - - - - 13.5 1028.1 1.0
04/09:00pm CALM 0 0 - - - - - - Recent precip. 13.5 1028.0 1.0
04/08:30pm CALM 0 0 - - - - - - - 13.5 1028.0 1.0
04/08:00pm ENE 1 3 - - - - - - - 13.4 1028.0 0.8
04/07:30pm E 3 4 - - - - - - - 13.7 1028.2 0.8
04/07:00pm E 3 5 - - - - - - - 13.6 1028.2 0.8
04/06:30pm E 4 6 - - - - - - - 13.8 1028.1 0.8
04/06:00pm E 5 7 - - - - - - Recent precip. 14.1 1027.7 0.8
04/05:30pm E 5 8 - - - - - - - 14.6 1027.5 0.6
04/05:00pm SSE 5 9 - - - - - - - 15.1 1027.5 0.0
04/04:30pm SE 4 7 - - - - - - - 15.8 1027.5 0.0
04/04:00pm SE 3 8 - - - - - - - 15.7 1027.5 0.0
04/03:30pm ESE 3 6 - - - - - - - 16.1 1027.2 0.0
04/03:00pm ESE 5 9 - - - - - - - 16.4 1027.1 0.0
04/02:30pm SE 4 7 - - - - - - - 17.1 1027.0 0.0
04/02:00pm SSE 5 9 - - - - - - - 17.3 1026.8 0.0
04/01:30pm SE 5 9 - - - - - - - 17.7 1027.0 0.0
04/01:00pm E 3 5 - - - - - - - 19.3 1027.2 0.0
04/12:30pm E 2 5 - - - - - - - 18.5 1027.5 0.0
04/12:00pm ENE 4 6 - - - - - - - 17.0 1028.1 0.0
04/11:30am ENE 4 6 - - - - - - - 15.8 1028.4 0.0
04/11:00am NE 3 5 - - - - - - - 15.7 1028.7 0.0
04/10:30am NE 4 6 - - - - - - - 14.9 1028.7 0.0
04/10:00am NE 4 5 - - - - - - - 14.4 1028.7 0.0
04/09:30am ESE 3 4 - - - - - - - 13.5 1028.8 0.0
04/09:00am ESE 2 4 - - - - - - - 13.0 1028.8 3.4
04/08:30am CALM 0 0 - - - - - - - 12.2 1028.7 3.4
04/08:00am ESE 2 3 - - - - - - - 12.3 1028.4 3.4
04/07:30am ENE 4 5 - - - - - - - 10.5 1028.1 3.4
04/07:00am E 3 4 - - - - - - - 10.7 1027.6 3.4
04/06:30am CALM 0 0 - - - - - - - 10.5 1027.6 3.4
04/06:00am CALM 0 3 - - - - - - - 11.2 1027.7 3.2
04/05:30am CALM 0 0 - - - - - - - 11.1 1027.7 3.2
04/05:00am CALM 0 0 - - - - - - - 11.0 1027.9 3.2
04/04:30am CALM 0 0 - - - - - - - 11.0 1027.9 3.2
04/04:00am CALM 0 0 - - - - - - - 11.4 1027.7 3.2
04/03:30am CALM 0 0 - - - - - - - 11.7 1027.7 3.2
04/03:00am CALM 0 0 - - - - - - - 12.3 1027.6 3.2
04/02:30am E 1 3 - - - - - - - 12.5 1027.7 3.2
04/02:00am CALM 0 0 - - - - - - - 12.5 1027.6 3.2
04/01:30am CALM 0 0 - - - - - - - 12.7 1027.7 3.2
04/01:00am E 3 4 - - - - - - - 12.9 1027.9 3.2
04/12:30am E 3 4 - - - - - - - 12.8 1027.7 3.2
04/12:00am CALM 0 0 - - - - - - Recent precip. 12.8 1027.6 3.2
 
Date/Time
WST
Wind Sea
Height
m
Swell Vis
km
Cloud Weather Temp
°C
Press
MSL
hPa
Rain since
9am
mm
Dir  Spd
kts
Gust
kts
Height
m
Period
s
Dir
03/11:30pm E 1 3 - - - - - - - 13.3 1027.7 3.2
03/11:00pm CALM 0 0 - - - - - - - 13.3 1027.9 3.0
03/10:30pm CALM 0 0 - - - - - - - 13.3 1028.1 3.0
03/10:00pm CALM 0 0 - - - - - - - 13.5 1028.1 3.0
03/09:30pm CALM 0 0 - - - - - - - 13.5 1028.1 1.6
03/09:00pm E 1 4 - - - - - - Rain 13.5 1028.0 1.4
03/08:30pm CALM 0 0 - - - - - - - 13.3 1027.6 1.2
03/08:00pm CALM 0 0 - - - - - - - 13.7 1027.7 1.2
03/07:30pm CALM 0 0 - - - - - - - 13.9 1027.6 1.2
03/07:00pm E 4 5 - - - - - - - 14.1 1027.4 1.2
03/06:30pm ESE 1 3 - - - - - - - 14.4 1027.2 0.8
03/06:00pm ESE 3 5 - - - - - - - 14.5 1026.8 0.4
03/05:30pm ESE 2 4 - - - - - - - 14.4 1026.6 0.4
03/05:00pm ESE 4 7 - - - - - - - 15.1 1026.4 0.4
03/04:30pm SE 3 5 - - - - - - - 15.6 1026.3 0.4
03/04:00pm SE 6 9 - - - - - - - 16.8 1026.2 0.4
03/03:30pm SE 6 9 - - - - - - - 16.8 1026.1 0.4
03/03:00pm SE 5 7 - - - - - - - 17.1 1026.2 0.4
03/02:30pm ESE 5 9 - - - - - - - 17.2 1026.1 0.4
03/02:00pm SE 6 11 - - - - - - - 17.8 1026.1 0.4
03/01:30pm ESE 5 9 - - - - - - - 17.2 1026.0 0.4
03/01:00pm ESE 5 8 - - - - - - - 17.9 1026.1 0.4
03/12:30pm ESE 5 8 - - - - - - - 17.1 1026.4 0.4
03/12:00pm ESE 6 11 - - - - - - - 17.2 1026.8 0.4
03/11:30am ESE 9 12 - - - - - - - 16.9 1027.1 0.4
03/11:00am SE 4 8 - - - - - - - 15.2 1027.1 0.4
03/10:30am ESE 4 7 - - - - - - - 15.3 1027.2 0.4
03/10:00am ESE 6 10 - - - - - - - 15.6 1027.3 0.4
03/09:30am SE 3 5 - - - - - - - 14.9 1027.3 0.4
03/09:00am ESE 3 5 - - - - - - Recent precip. 14.2 1027.2 6.2
03/08:30am ESE 1 5 - - - - - - - 14.0 1026.8 5.8
03/08:00am SSE 1 4 - - - - - - - 13.7 1026.5 5.8
03/07:30am SSE 1 4 - - - - - - - 13.5 1026.1 5.8
03/07:00am E 4 6 - - - - - - - 13.4 1025.8 5.8
03/06:30am ESE 6 11 - - - - - - - 13.3 1025.6 5.6
03/06:00am ESE 3 7 - - - - - - Rain 13.4 1025.4 5.6
03/05:30am SE 3 4 - - - - - - - 13.5 1025.3 5.4
03/05:00am ESE 3 6 - - - - - - - 13.6 1025.1 5.4
03/04:30am ESE 5 12 - - - - - - - 13.5 1024.9 5.4
03/04:00am SE 2 6 - - - - - - - 13.3 1024.8 5.4
03/03:30am ESE 3 6 - - - - - - - 12.9 1024.6 5.4
03/03:00am SE 5 9 - - - - - - Recent precip. 13.2 1024.7 5.4
03/02:30am SE 5 9 - - - - - - - 13.2 1024.8 5.4
03/02:00am CALM 0 3 - - - - - - - 12.8 1024.7 5.0
03/01:30am SE 4 9 - - - - - - - 13.0 1024.8 5.0
03/01:00am ESE 7 11 - - - - - - - 13.2 1024.7 5.0
03/12:30am ESE 5 7 - - - - - - - 13.3 1024.6 5.0
03/12:00am SSW 2 7 - - - - - - Recent precip. 13.0 1024.4 5.0
 
Date/Time
WST
Wind Sea
Height
m
Swell Vis
km
Cloud Weather Temp
°C
Press
MSL
hPa
Rain since
9am
mm
Dir  Spd
kts
Gust
kts
Height
m
Period
s
Dir
02/11:30pm SE 3 7 - - - - - - - 12.8 1024.4 5.0
02/11:00pm SSW 6 11 - - - - - - - 13.4 1024.5 4.8
02/10:30pm SSW 8 13 - - - - - - - 13.3 1024.5 4.8
02/10:00pm SSE 5 9 - - - - - - - 13.2 1024.4 4.6
02/09:30pm SSE 5 8 - - - - - - - 13.4 1024.4 4.6
02/09:00pm SSW 5 8 - - - - - - Rain 13.7 1024.5 4.2
02/08:30pm SW 4 7 - - - - - - - 13.4 1024.3 2.8
02/08:00pm SW 3 4 - - - - - - - 13.6 1024.2 2.6
02/07:30pm SW 2 6 - - - - - - - 13.5 1024.3 2.6
02/07:00pm SW 4 6 - - - - - - - 13.7 1024.2 2.2
02/06:30pm SSW 4 8 - - - - - - - 13.9 1024.1 1.8
02/06:00pm SW 5 7 - - - - - - - 14.3 1023.7 1.0
02/05:30pm WSW 3 5 - - - - - - - 14.6 1023.4 1.0
02/05:00pm SSW 3 6 - - - - - - - 14.9 1023.4 1.0
02/04:30pm SW 5 9 - - - - - - - 15.2 1023.4 1.0
02/04:00pm SW 6 13 - - - - - - - 15.8 1023.4 1.0
02/03:30pm SW 7 11 - - - - - - - 15.8 1023.5 1.0
02/03:00pm SW 7 10 - - - - - - - 15.5 1023.5 1.0
02/02:30pm SSW 7 13 - - - - - - - 16.4 1023.5 1.0
02/02:00pm SSW 9 15 - - - - - - - 15.0 1023.6 1.0
02/01:30pm SW 6 12 - - - - - - - 15.4 1023.7 1.0
02/01:00pm SSW 8 14 - - - - - - - 15.3 1023.8 1.0
02/12:30pm SW 6 9 - - - - - - - 15.7 1024.0 1.0
02/12:00pm SSW 10 17 - - - - - - Recent precip. 15.0 1024.6 1.0
02/11:30am WSW 5 8 - - - - - - - 14.1 1024.9 1.0
02/11:00am SW 5 12 - - - - - - - 13.8 1025.2 0.8
02/10:30am WSW 6 12 - - - - - - - 13.3 1025.3 0.8
02/10:00am SW 5 9 - - - - - - - 13.3 1025.4 0.2
02/09:30am SW 3 7 - - - - - - - 12.8 1025.4 0.2
02/09:00am SW 6 11 - - - - - - Recent precip. 12.9 1025.5 2.0
02/08:30am SSW 6 13 - - - - - - - 11.7 1025.2 2.0
02/08:00am SW 4 7 - - - - - - - 11.5 1024.7 1.6
02/07:30am SSW 5 8 - - - - - - - 11.9 1024.5 1.2
02/07:00am SSW 6 10 - - - - - - - 12.3 1024.3 1.2
02/06:30am SW 5 9 - - - - - - - 12.3 1024.0 1.2
02/06:00am SSW 6 10 - - - - - - - 12.0 1024.2 1.2
02/05:30am S 9 15 - - - - - - - 12.0 1024.2 1.2
02/05:00am SSW 7 13 - - - - - - - 12.2 1024.1 1.2
02/04:30am SSW 6 11 - - - - - - - 12.2 1023.8 1.2
02/04:00am SSW 7 15 - - - - - - - 12.2 1023.9 1.2
02/03:30am SSW 5 10 - - - - - - - 12.0 1023.8 1.2
02/03:00am S 8 13 - - - - - - - 11.8 1023.9 1.2
02/02:30am SSW 6 10 - - - - - - - 12.0 1024.1 1.2
02/02:00am SSW 6 12 - - - - - - - 11.9 1024.3 1.2
02/01:30am SW 4 7 - - - - - - - 10.9 1024.0 1.2
02/01:00am SW 4 8 - - - - - - - 10.9 1024.1 1.2
02/12:30am SSW 5 10 - - - - - - - 11.3 1024.2 1.2
02/12:00am SSW 6 11 - - - - - - - 11.9 1024.3 1.2
 
Date/Time
WST
Wind Sea
Height
m
Swell Vis
km
Cloud Weather Temp
°C
Press
MSL
hPa
Rain since
9am
mm
Dir  Spd
kts
Gust
kts
Height
m
Period
s
Dir
01/11:30pm SSW 4 7 - - - - - - - 11.8 1024.1 1.2
01/11:00pm SSW 5 7 - - - - - - - 11.6 1024.2 1.2
01/10:30pm SSW 4 8 - - - - - - - 11.2 1024.2 1.2
01/10:00pm SW 3 5 - - - - - - - 10.8 1024.5 1.2

Other formats

Comma delimited format used in spreadsheet applications
http://www.bom.gov.au/fwo/IDW60701/IDW60701.95647.axf

JavaScript Object Notation format (JSON) in row-major order
http://www.bom.gov.au/fwo/IDW60701/IDW60701.95647.json

Data quality

Most of these data are generated automatically and are frequently updated. Quality checks on data are not normally performed. It is possible for incorrect values to appear. Refer to information at About Latest Weather Observations and please check the disclaimer before using these data.